sensor_id;sensor_type;location;lat;lon;timestamp;pressure;altitude;pressure_sealevel;temperature;humidity
55373;BME280;41249;47.838;16.490;2023-04-25T00:01:48;98502.13;;;6.12;53.63
55373;BME280;41249;47.838;16.490;2023-04-25T00:04:14;98520.25;;;6.13;53.57
55373;BME280;41249;47.838;16.490;2023-04-25T00:06:42;98506.88;;;6.12;53.76
55373;BME280;41249;47.838;16.490;2023-04-25T00:09:08;98515.09;;;6.08;54.26
55373;BME280;41249;47.838;16.490;2023-04-25T00:11:37;98500.94;;;6.06;53.57
55373;BME280;41249;47.838;16.490;2023-04-25T00:14:04;98520.22;;;6.06;53.71
55373;BME280;41249;47.838;16.490;2023-04-25T00:16:30;98519.81;;;6.04;54.06
55373;BME280;41249;47.838;16.490;2023-04-25T00:19:00;98515.06;;;6.05;53.90
55373;BME280;41249;47.838;16.490;2023-04-25T00:21:27;98509.16;;;6.02;53.24
55373;BME280;41249;47.838;16.490;2023-04-25T00:23:54;98523.34;;;6.01;54.26
55373;BME280;41249;47.838;16.490;2023-04-25T00:26:21;98516.25;;;6.00;53.16
55373;BME280;41249;47.838;16.490;2023-04-25T00:28:47;98502.84;;;5.98;54.09
55373;BME280;41249;47.838;16.490;2023-04-25T00:31:14;98509.53;;;5.94;53.80
55373;BME280;41249;47.838;16.490;2023-04-25T00:33:41;98504.78;;;5.91;53.79
55373;BME280;41249;47.838;16.490;2023-04-25T00:36:07;98515.00;;;5.90;53.01
55373;BME280;41249;47.838;16.490;2023-04-25T00:38:34;98513.06;;;5.91;52.81
55373;BME280;41249;47.838;16.490;2023-04-25T00:41:01;98508.31;;;5.88;53.11
55373;BME280;41249;47.838;16.490;2023-04-25T00:43:27;98503.59;;;5.88;53.60
55373;BME280;41249;47.838;16.490;2023-04-25T00:45:54;98508.28;;;5.84;53.53
55373;BME280;41249;47.838;16.490;2023-04-25T00:48:22;98498.06;;;5.85;52.68
55373;BME280;41249;47.838;16.490;2023-04-25T00:50:52;98496.50;;;5.84;53.62
55373;BME280;41249;47.838;16.490;2023-04-25T00:53:20;98500.41;;;5.83;53.07
55373;BME280;41249;47.838;16.490;2023-04-25T00:55:47;98493.72;;;5.80;54.21
55373;BME280;41249;47.838;16.490;2023-04-25T00:58:14;98494.88;;;5.76;54.23
55373;BME280;41249;47.838;16.490;2023-04-25T01:00:40;98509.03;;;5.78;54.12
55373;BME280;41249;47.838;16.490;2023-04-25T01:03:07;98501.97;;;5.77;53.92
55373;BME280;41249;47.838;16.490;2023-04-25T01:05:34;98502.38;;;5.79;54.54
55373;BME280;41249;47.838;16.490;2023-04-25T01:08:00;98495.28;;;5.74;54.69
55373;BME280;41249;47.838;16.490;2023-04-25T01:10:27;98488.56;;;5.72;54.55
55373;BME280;41249;47.838;16.490;2023-04-25T01:12:53;98499.94;;;5.70;54.67
55373;BME280;41249;47.838;16.490;2023-04-25T01:15:20;98497.59;;;5.69;54.85
55373;BME280;41249;47.838;16.490;2023-04-25T01:17:46;98500.34;;;5.69;54.75
55373;BME280;41249;47.838;16.490;2023-04-25T01:20:15;98497.59;;;5.69;54.59
55373;BME280;41249;47.838;16.490;2023-04-25T01:22:42;98500.72;;;5.67;54.57
55373;BME280;41249;47.838;16.490;2023-04-25T01:25:09;98505.81;;;5.65;54.79
55373;BME280;41249;47.838;16.490;2023-04-25T01:27:36;98486.53;;;5.62;54.77
55373;BME280;41249;47.838;16.490;2023-04-25T01:30:03;98493.22;;;5.61;55.33
55373;BME280;41249;47.838;16.490;2023-04-25T01:32:30;98501.81;;;5.56;55.14
55373;BME280;41249;47.838;16.490;2023-04-25T01:35:08;98495.53;;;5.52;55.08
55373;BME280;41249;47.838;16.490;2023-04-25T01:37:39;98497.44;;;5.48;55.19
55373;BME280;41249;47.838;16.490;2023-04-25T01:40:06;98491.94;;;5.44;55.51
55373;BME280;41249;47.838;16.490;2023-04-25T01:42:33;98500.94;;;5.45;55.77
55373;BME280;41249;47.838;16.490;2023-04-25T01:44:59;98497.00;;;5.42;55.79
55373;BME280;41249;47.838;16.490;2023-04-25T01:47:26;98502.50;;;5.39;55.82
55373;BME280;41249;47.838;16.490;2023-04-25T01:49:53;98502.91;;;5.41;55.78
55373;BME280;41249;47.838;16.490;2023-04-25T01:52:19;98490.69;;;5.38;55.81
55373;BME280;41249;47.838;16.490;2023-04-25T01:54:46;98492.69;;;5.41;55.25
55373;BME280;41249;47.838;16.490;2023-04-25T01:57:12;98496.25;;;5.42;55.48
55373;BME280;41249;47.838;16.490;2023-04-25T01:59:39;98497.00;;;5.42;55.79
55373;BME280;41249;47.838;16.490;2023-04-25T02:02:06;98505.66;;;5.41;55.41
55373;BME280;41249;47.838;16.490;2023-04-25T02:04:32;98508.00;;;5.39;55.70
55373;BME280;41249;47.838;16.490;2023-04-25T02:06:59;98507.16;;;5.34;55.75
55373;BME280;41249;47.838;16.490;2023-04-25T02:09:26;98496.16;;;5.31;56.09
55373;BME280;41249;47.838;16.490;2023-04-25T02:11:52;98510.31;;;5.29;56.30
55373;BME280;41249;47.838;16.490;2023-04-25T02:14:19;98510.66;;;5.24;56.29
55373;BME280;41249;47.838;16.490;2023-04-25T02:16:45;98508.66;;;5.21;56.55
55373;BME280;41249;47.838;16.490;2023-04-25T02:19:12;98507.06;;;5.20;56.74
55373;BME280;41249;47.838;16.490;2023-04-25T02:21:39;98504.72;;;5.19;56.75
55373;BME280;41249;47.838;16.490;2023-04-25T02:24:05;98500.72;;;5.13;57.37
55373;BME280;41249;47.838;16.490;2023-04-25T02:26:32;98510.09;;;5.08;57.36
55373;BME280;41249;47.838;16.490;2023-04-25T02:28:58;98509.28;;;5.04;57.07
55373;BME280;41249;47.838;16.490;2023-04-25T02:31:25;98512.03;;;5.04;57.80
55373;BME280;41249;47.838;16.490;2023-04-25T02:33:52;98510.03;;;5.01;57.82
55373;BME280;41249;47.838;16.490;2023-04-25T02:36:18;98517.03;;;4.95;57.99
55373;BME280;41249;47.838;16.490;2023-04-25T02:38:45;98503.69;;;4.94;57.63
55373;BME280;41249;47.838;16.490;2023-04-25T02:41:11;98511.88;;;4.90;58.15
55373;BME280;41249;47.838;16.490;2023-04-25T02:43:38;98507.56;;;4.89;58.17
55373;BME280;41249;47.838;16.490;2023-04-25T02:46:04;98510.69;;;4.84;58.19
55373;BME280;41249;47.838;16.490;2023-04-25T02:48:30;98512.59;;;4.80;58.26
55373;BME280;41249;47.838;16.490;2023-04-25T02:50:57;98506.69;;;4.78;58.09
55373;BME280;41249;47.838;16.490;2023-04-25T02:53:23;98505.84;;;4.74;58.21
55373;BME280;41249;47.838;16.490;2023-04-25T02:55:50;98505.03;;;4.70;58.84
55373;BME280;41249;47.838;16.490;2023-04-25T02:58:18;98511.31;;;4.70;58.39
55373;BME280;41249;47.838;16.490;2023-04-25T03:00:45;98511.28;;;4.67;58.59
55373;BME280;41249;47.838;16.490;2023-04-25T03:03:11;98513.59;;;4.65;58.32
55373;BME280;41249;47.838;16.490;2023-04-25T03:05:38;98508.88;;;4.62;59.08
55373;BME280;41249;47.838;16.490;2023-04-25T03:08:05;98515.88;;;4.56;59.35
55373;BME280;41249;47.838;16.490;2023-04-25T03:10:31;98516.69;;;4.56;58.80
55373;BME280;41249;47.838;16.490;2023-04-25T03:12:58;98519.78;;;4.55;59.06
55373;BME280;41249;47.838;16.490;2023-04-25T03:15:24;98513.47;;;4.51;58.87
55373;BME280;41249;47.838;16.490;2023-04-25T03:17:51;98513.81;;;4.46;59.88
55373;BME280;41249;47.838;16.490;2023-04-25T03:20:17;98518.03;;;4.36;59.39
55373;BME280;41249;47.838;16.490;2023-04-25T03:22:44;98519.16;;;4.32;59.58
55373;BME280;41249;47.838;16.490;2023-04-25T03:25:11;98519.50;;;4.27;60.23
55373;BME280;41249;47.838;16.490;2023-04-25T03:27:37;98517.88;;;4.26;59.80
55373;BME280;41249;47.838;16.490;2023-04-25T03:30:04;98516.19;;;4.14;60.53
55373;BME280;41249;47.838;16.490;2023-04-25T03:32:30;98528.31;;;4.10;60.16
55373;BME280;41249;47.838;16.490;2023-04-25T03:34:57;98520.34;;;4.01;60.63
55373;BME280;41249;47.838;16.490;2023-04-25T03:37:23;98527.03;;;4.03;60.94
55373;BME280;41249;47.838;16.490;2023-04-25T03:39:50;98534.13;;;4.04;61.35
55373;BME280;41249;47.838;16.490;2023-04-25T03:42:16;98521.53;;;4.03;60.60
55373;BME280;41249;47.838;16.490;2023-04-25T03:44:43;98534.81;;;3.98;60.71
55373;BME280;41249;47.838;16.490;2023-04-25T03:47:10;98527.75;;;3.97;60.98
55373;BME280;41249;47.838;16.490;2023-04-25T03:49:36;98534.78;;;3.94;61.79
55373;BME280;41249;47.838;16.490;2023-04-25T03:52:03;98530.09;;;3.98;61.03
55373;BME280;41249;47.838;16.490;2023-04-25T03:54:30;98545.06;;;4.01;60.88
55373;BME280;41249;47.838;16.490;2023-04-25T03:56:56;98552.06;;;3.98;61.01
55373;BME280;41249;47.838;16.490;2023-04-25T03:59:22;98541.03;;;3.95;60.65
55373;BME280;41249;47.838;16.490;2023-04-25T04:01:49;98545.69;;;3.91;61.52
55373;BME280;41249;47.838;16.490;2023-04-25T04:04:15;98546.44;;;3.88;61.46
55373;BME280;41249;47.838;16.490;2023-04-25T04:06:42;98539.38;;;3.87;61.84
55373;BME280;41249;47.838;16.490;2023-04-25T04:09:09;98542.91;;;3.87;61.60
55373;BME280;41249;47.838;16.490;2023-04-25T04:11:37;98533.50;;;3.88;60.58
55373;BME280;41249;47.838;16.490;2023-04-25T04:14:05;98536.25;;;3.88;61.72
55373;BME280;41249;47.838;16.490;2023-04-25T04:16:31;98534.69;;;3.87;61.32
55373;BME280;41249;47.838;16.490;2023-04-25T04:18:59;98535.84;;;3.86;60.95
55373;BME280;41249;47.838;16.490;2023-04-25T04:21:26;98527.19;;;3.84;61.75
55373;BME280;41249;47.838;16.490;2023-04-25T04:23:53;98542.47;;;3.85;61.52
55373;BME280;41249;47.838;16.490;2023-04-25T04:26:20;98530.66;;;3.81;61.18
55373;BME280;41249;47.838;16.490;2023-04-25T04:28:49;98538.53;;;3.83;61.15
55373;BME280;41249;47.838;16.490;2023-04-25T04:31:20;98546.34;;;3.81;61.11
55373;BME280;41249;47.838;16.490;2023-04-25T04:33:47;98558.94;;;3.85;60.82
55373;BME280;41249;47.838;16.490;2023-04-25T04:36:14;98551.09;;;3.84;61.01
55373;BME280;41249;47.838;16.490;2023-04-25T04:38:41;98549.16;;;3.84;61.43
55373;BME280;41249;47.838;16.490;2023-04-25T04:41:08;98538.91;;;3.81;61.67
55373;BME280;41249;47.838;16.490;2023-04-25T04:43:35;98544.78;;;3.80;60.76
55373;BME280;41249;47.838;16.490;2023-04-25T04:46:01;98540.06;;;3.80;60.99
55373;BME280;41249;47.838;16.490;2023-04-25T04:48:30;98539.22;;;3.76;61.69
55373;BME280;41249;47.838;16.490;2023-04-25T04:50:58;98538.00;;;3.74;61.63
55373;BME280;41249;47.838;16.490;2023-04-25T04:53:25;98541.56;;;3.74;61.48
55373;BME280;41249;47.838;16.490;2023-04-25T04:55:52;98540.38;;;3.75;60.85
55373;BME280;41249;47.838;16.490;2023-04-25T04:58:18;98538.41;;;3.72;61.86
55373;BME280;41249;47.838;16.490;2023-04-25T05:00:45;98541.81;;;3.66;61.19
55373;BME280;41249;47.838;16.490;2023-04-25T05:03:12;98544.13;;;3.64;61.99
55373;BME280;41249;47.838;16.490;2023-04-25T05:05:39;98542.50;;;3.59;61.98
55373;BME280;41249;47.838;16.490;2023-04-25T05:08:08;98536.59;;;3.57;61.82
55373;BME280;41249;47.838;16.490;2023-04-25T05:10:35;98541.66;;;3.55;62.46
55373;BME280;41249;47.838;16.490;2023-04-25T05:13:01;98535.75;;;3.53;62.02
55373;BME280;41249;47.838;16.490;2023-04-25T05:15:28;98538.91;;;3.55;62.15
55373;BME280;41249;47.838;16.490;2023-04-25T05:17:55;98544.38;;;3.55;62.62
55373;BME280;41249;47.838;16.490;2023-04-25T05:20:22;98540.56;;;3.60;62.45
55373;BME280;41249;47.838;16.490;2023-04-25T05:22:49;98531.56;;;3.63;62.21
55373;BME280;41249;47.838;16.490;2023-04-25T05:25:15;98543.41;;;3.67;62.27
55373;BME280;41249;47.838;16.490;2023-04-25T05:27:42;98535.34;;;3.77;61.94
55373;BME280;41249;47.838;16.490;2023-04-25T05:30:08;98533.19;;;3.93;60.61
55373;BME280;41249;47.838;16.490;2023-04-25T05:32:35;98537.19;;;3.99;61.10
55373;BME280;41249;47.838;16.490;2023-04-25T05:35:03;98539.19;;;4.02;61.57
55373;BME280;41249;47.838;16.490;2023-04-25T05:37:29;98532.69;;;4.18;60.58
55373;BME280;41249;47.838;16.490;2023-04-25T05:39:57;98531.44;;;4.45;60.67
55373;BME280;41249;47.838;16.490;2023-04-25T05:42:23;98534.84;;;4.68;59.92
55373;BME280;41249;47.838;16.490;2023-04-25T05:44:50;98535.06;;;4.89;58.95
55373;BME280;41249;47.838;16.490;2023-04-25T05:47:16;98529.28;;;5.01;58.28
55373;BME280;41249;47.838;16.490;2023-04-25T05:49:43;98536.13;;;5.14;57.86
55373;BME280;41249;47.838;16.490;2023-04-25T05:52:09;98529.09;;;5.20;57.64
55373;BME280;41249;47.838;16.490;2023-04-25T05:54:36;98547.28;;;5.35;58.06
55373;BME280;41249;47.838;16.490;2023-04-25T05:57:02;98528.13;;;5.50;57.03
55373;BME280;41249;47.838;16.490;2023-04-25T05:59:29;98519.22;;;5.67;57.13
55373;BME280;41249;47.838;16.490;2023-04-25T06:01:55;98536.19;;;5.79;56.04
55373;BME280;41249;47.838;16.490;2023-04-25T06:04:22;98525.63;;;5.92;55.67
55373;BME280;41249;47.838;16.490;2023-04-25T06:06:49;98528.13;;;6.18;55.71
55373;BME280;41249;47.838;16.490;2023-04-25T06:09:15;98523.50;;;6.36;55.45
55373;BME280;41249;47.838;16.490;2023-04-25T06:11:42;98529.03;;;6.50;54.59
55373;BME280;41249;47.838;16.490;2023-04-25T06:14:08;98524.75;;;6.56;54.34
55373;BME280;41249;47.838;16.490;2023-04-25T06:16:35;98528.34;;;6.71;54.76
55373;BME280;41249;47.838;16.490;2023-04-25T06:19:01;98523.16;;;6.62;53.23
55373;BME280;41249;47.838;16.490;2023-04-25T06:21:28;98527.94;;;6.73;53.65
55373;BME280;41249;47.838;16.490;2023-04-25T06:23:54;98517.31;;;6.75;53.06
55373;BME280;41249;47.838;16.490;2023-04-25T06:26:21;98525.22;;;6.87;53.14
55373;BME280;41249;47.838;16.490;2023-04-25T06:28:48;98534.69;;;7.00;54.76
55373;BME280;41249;47.838;16.490;2023-04-25T06:31:14;98541.81;;;7.25;53.84
55373;BME280;41249;47.838;16.490;2023-04-25T06:33:41;98535.50;;;7.25;52.17
55373;BME280;41249;47.838;16.490;2023-04-25T06:36:07;98548.13;;;7.26;51.92
55373;BME280;41249;47.838;16.490;2023-04-25T06:38:34;98531.19;;;7.31;53.15
55373;BME280;41249;47.838;16.490;2023-04-25T06:41:01;98528.81;;;7.40;51.45
55373;BME280;41249;47.838;16.490;2023-04-25T06:43:28;98543.00;;;7.63;51.57
55373;BME280;41249;47.838;16.490;2023-04-25T06:45:59;98532.34;;;7.58;50.25
55373;BME280;41249;47.838;16.490;2023-04-25T06:48:26;98529.16;;;7.77;51.91
55373;BME280;41249;47.838;16.490;2023-04-25T06:50:53;98525.97;;;7.89;51.30
55373;BME280;41249;47.838;16.490;2023-04-25T06:53:20;98525.53;;;8.12;51.58
55373;BME280;41249;47.838;16.490;2023-04-25T06:55:46;98525.09;;;8.24;48.43
55373;BME280;41249;47.838;16.490;2023-04-25T06:58:13;98526.72;;;8.04;48.16
55373;BME280;41249;47.838;16.490;2023-04-25T07:00:39;98521.63;;;8.06;47.77
55373;BME280;41249;47.838;16.490;2023-04-25T07:03:06;98531.09;;;7.98;48.23
55373;BME280;41249;47.838;16.490;2023-04-25T07:05:32;98516.88;;;7.92;49.33
55373;BME280;41249;47.838;16.490;2023-04-25T07:07:59;98518.34;;;8.32;49.11
55373;BME280;41249;47.838;16.490;2023-04-25T07:10:26;98513.94;;;8.45;47.94
55373;BME280;41249;47.838;16.490;2023-04-25T07:12:53;98515.50;;;8.50;47.01
55373;BME280;41249;47.838;16.490;2023-04-25T07:15:19;98517.09;;;8.51;45.69
55373;BME280;41249;47.838;16.490;2023-04-25T07:17:46;98509.56;;;8.51;46.27
55373;BME280;41249;47.838;16.490;2023-04-25T07:20:12;98503.59;;;8.60;45.84
55373;BME280;41249;47.838;16.490;2023-04-25T07:22:39;98493.91;;;8.89;46.13
55373;BME280;41249;47.838;16.490;2023-04-25T07:25:05;98500.50;;;9.09;45.92
55373;BME280;41249;47.838;16.490;2023-04-25T07:27:32;98488.31;;;8.96;44.59
55373;BME280;41249;47.838;16.490;2023-04-25T07:29:59;98494.63;;;9.00;45.45
55373;BME280;41249;47.838;16.490;2023-04-25T07:32:25;98477.78;;;9.29;45.21
55373;BME280;41249;47.838;16.490;2023-04-25T07:34:52;98489.00;;;9.11;42.80
55373;BME280;41249;47.838;16.490;2023-04-25T07:37:19;98499.44;;;8.93;43.89
55373;BME280;41249;47.838;16.490;2023-04-25T07:39:45;98497.78;;;9.06;43.96
55373;BME280;41249;47.838;16.490;2023-04-25T07:42:13;98486.28;;;9.07;45.13
55373;BME280;41249;47.838;16.490;2023-04-25T07:44:39;98474.25;;;9.25;44.68
55373;BME280;41249;47.838;16.490;2023-04-25T07:47:06;98480.19;;;9.27;43.78
55373;BME280;41249;47.838;16.490;2023-04-25T07:49:33;98492.03;;;9.27;43.47
55373;BME280;41249;47.838;16.490;2023-04-25T07:52:01;98473.97;;;9.12;44.25
55373;BME280;41249;47.838;16.490;2023-04-25T07:54:28;98472.25;;;9.29;44.47
55373;BME280;41249;47.838;16.490;2023-04-25T07:56:55;98469.06;;;9.34;43.98
55373;BME280;41249;47.838;16.490;2023-04-25T07:59:21;98477.19;;;9.55;44.85
55373;BME280;41249;47.838;16.490;2023-04-25T08:01:48;98467.00;;;9.45;43.93
55373;BME280;41249;47.838;16.490;2023-04-25T08:04:14;98469.28;;;9.53;43.91
55373;BME280;41249;47.838;16.490;2023-04-25T08:06:41;98472.81;;;9.57;43.80
55373;BME280;41249;47.838;16.490;2023-04-25T08:09:08;98474.41;;;9.92;43.19
55373;BME280;41249;47.838;16.490;2023-04-25T08:11:37;98471.47;;;10.06;41.31
55373;BME280;41249;47.838;16.490;2023-04-25T08:14:04;98455.75;;;9.96;41.93
55373;BME280;41249;47.838;16.490;2023-04-25T08:16:31;98474.94;;;9.80;42.04
55373;BME280;41249;47.838;16.490;2023-04-25T08:18:58;98457.75;;;9.96;42.61
55373;BME280;41249;47.838;16.490;2023-04-25T08:21:25;98468.25;;;10.45;41.44
55373;BME280;41249;47.838;16.490;2023-04-25T08:23:53;98457.41;;;10.54;40.87
55373;BME280;41249;47.838;16.490;2023-04-25T08:26:19;98466.72;;;10.67;41.07
55373;BME280;41249;47.838;16.490;2023-04-25T08:28:46;98462.19;;;10.20;41.07
55373;BME280;41249;47.838;16.490;2023-04-25T08:31:13;98472.97;;;10.14;42.87
55373;BME280;41249;47.838;16.490;2023-04-25T08:33:39;98480.78;;;10.53;42.01
55373;BME280;41249;47.838;16.490;2023-04-25T08:36:06;98464.84;;;10.87;41.54
55373;BME280;41249;47.838;16.490;2023-04-25T08:38:32;98473.00;;;10.98;39.57
55373;BME280;41249;47.838;16.490;2023-04-25T08:40:59;98473.06;;;10.37;41.53
55373;BME280;41249;47.838;16.490;2023-04-25T08:43:27;98468.59;;;9.83;41.51
55373;BME280;41249;47.838;16.490;2023-04-25T08:45:54;98458.38;;;10.40;41.43
55373;BME280;41249;47.838;16.490;2023-04-25T08:48:24;98476.34;;;11.13;41.61
55373;BME280;41249;47.838;16.490;2023-04-25T08:50:53;98480.44;;;11.04;38.81
55373;BME280;41249;47.838;16.490;2023-04-25T08:53:28;98479.31;;;11.25;39.45
55373;BME280;41249;47.838;16.490;2023-04-25T08:55:56;98488.84;;;11.24;38.84
55373;BME280;41249;47.838;16.490;2023-04-25T08:58:23;98484.56;;;11.43;39.15
55373;BME280;41249;47.838;16.490;2023-04-25T09:00:50;98481.97;;;11.55;36.96
55373;BME280;41249;47.838;16.490;2023-04-25T09:03:17;98484.41;;;11.30;37.24
55373;BME280;41249;47.838;16.490;2023-04-25T09:05:45;98475.88;;;11.41;37.56
55373;BME280;41249;47.838;16.490;2023-04-25T09:08:11;98486.19;;;11.87;38.10
55373;BME280;41249;47.838;16.490;2023-04-25T09:10:38;98480.28;;;12.04;38.03
55373;BME280;41249;47.838;16.490;2023-04-25T09:13:08;98474.53;;;11.52;38.98
55373;BME280;41249;47.838;16.490;2023-04-25T09:15:49;98477.34;;;10.99;39.96
55373;BME280;41249;47.838;16.490;2023-04-25T09:18:26;98482.13;;;10.98;39.41
55373;BME280;41249;47.838;16.490;2023-04-25T09:20:57;98488.59;;;11.38;38.08
55373;BME280;41249;47.838;16.490;2023-04-25T09:23:28;98507.88;;;11.26;35.72
55373;BME280;41249;47.838;16.490;2023-04-25T09:25:54;98477.06;;;11.17;36.29
55373;BME280;41249;47.838;16.490;2023-04-25T09:28:25;98484.94;;;11.22;37.41
55373;BME280;41249;47.838;16.490;2023-04-25T09:30:55;98488.13;;;11.43;37.28
55373;BME280;41249;47.838;16.490;2023-04-25T09:33:31;98486.91;;;11.21;36.74
55373;BME280;41249;47.838;16.490;2023-04-25T09:36:03;98479.06;;;11.16;37.61
55373;BME280;41249;47.838;16.490;2023-04-25T09:38:40;98488.88;;;11.90;38.62
55373;BME280;41249;47.838;16.490;2023-04-25T09:41:08;98482.72;;;12.22;38.96
55373;BME280;41249;47.838;16.490;2023-04-25T09:43:35;98466.25;;;11.45;36.64
55373;BME280;41249;47.838;16.490;2023-04-25T09:46:02;98489.09;;;10.83;36.12
55373;BME280;41249;47.838;16.490;2023-04-25T09:48:29;98471.72;;;11.29;37.96
55373;BME280;41249;47.838;16.490;2023-04-25T09:51:08;98473.91;;;11.64;38.24
55373;BME280;41249;47.838;16.490;2023-04-25T09:53:36;98486.78;;;12.17;35.30
55373;BME280;41249;47.838;16.490;2023-04-25T09:56:03;98474.25;;;12.45;35.27
55373;BME280;41249;47.838;16.490;2023-04-25T09:58:31;98476.06;;;12.55;34.23
55373;BME280;41249;47.838;16.490;2023-04-25T10:00:59;98471.84;;;12.67;32.76
55373;BME280;41249;47.838;16.490;2023-04-25T10:03:26;98440.78;;;13.00;34.42
55373;BME280;41249;47.838;16.490;2023-04-25T10:05:56;98457.94;;;12.47;32.31
55373;BME280;41249;47.838;16.490;2023-04-25T10:08:25;98466.88;;;12.19;33.79
55373;BME280;41249;47.838;16.490;2023-04-25T10:10:54;98449.78;;;12.56;34.99
55373;BME280;41249;47.838;16.490;2023-04-25T10:13:21;98451.31;;;13.25;32.67
55373;BME280;41249;47.838;16.490;2023-04-25T10:15:49;98462.19;;;13.84;32.76
55373;BME280;41249;47.838;16.490;2023-04-25T10:18:17;98450.91;;;13.11;34.63
55373;BME280;41249;47.838;16.490;2023-04-25T10:20:46;98451.78;;;13.24;33.10
55373;BME280;41249;47.838;16.490;2023-04-25T10:23:13;98449.78;;;13.08;34.27
55373;BME280;41249;47.838;16.490;2023-04-25T10:25:40;98457.16;;;12.47;35.33
55373;BME280;41249;47.838;16.490;2023-04-25T10:28:07;98456.50;;;12.59;36.87
55373;BME280;41249;47.838;16.490;2023-04-25T10:30:34;98445.97;;;12.11;35.31
55373;BME280;41249;47.838;16.490;2023-04-25T10:33:00;98457.03;;;11.29;36.82
55373;BME280;41249;47.838;16.490;2023-04-25T10:35:27;98436.75;;;10.82;36.59
55373;BME280;41249;47.838;16.490;2023-04-25T10:40:25;98438.63;;;11.15;37.15
55373;BME280;41249;47.838;16.490;2023-04-25T10:42:52;98433.81;;;11.39;37.42
55373;BME280;41249;47.838;16.490;2023-04-25T10:45:19;98466.44;;;11.11;38.75
55373;BME280;41249;47.838;16.490;2023-04-25T10:47:46;98438.34;;;11.06;40.27
55373;BME280;41249;47.838;16.490;2023-04-25T10:50:14;98437.88;;;11.34;40.40
55373;BME280;41249;47.838;16.490;2023-04-25T10:52:41;98433.63;;;11.49;39.07
55373;BME280;41249;47.838;16.490;2023-04-25T10:55:07;98423.66;;;11.95;37.13
55373;BME280;41249;47.838;16.490;2023-04-25T10:57:41;98419.13;;;12.20;37.76
55373;BME280;41249;47.838;16.490;2023-04-25T11:00:18;98419.81;;;12.44;36.66
55373;BME280;41249;47.838;16.490;2023-04-25T11:02:52;98450.75;;;11.91;37.35
55373;BME280;41249;47.838;16.490;2023-04-25T11:05:20;98439.56;;;11.74;39.34
55373;BME280;41249;47.838;16.490;2023-04-25T11:07:52;98428.41;;;11.32;40.82
55373;BME280;41249;47.838;16.490;2023-04-25T11:10:32;98432.41;;;10.81;43.59
55373;BME280;41249;47.838;16.490;2023-04-25T11:13:02;98423.13;;;10.91;43.63
55373;BME280;41249;47.838;16.490;2023-04-25T11:15:28;98419.78;;;10.76;42.31
55373;BME280;41249;47.838;16.490;2023-04-25T11:17:55;98416.84;;;10.87;42.71
55373;BME280;41249;47.838;16.490;2023-04-25T11:20:22;98425.75;;;11.01;40.84
55373;BME280;41249;47.838;16.490;2023-04-25T11:22:52;98430.16;;;10.99;40.90
55373;BME280;41249;47.838;16.490;2023-04-25T11:25:19;98410.44;;;11.13;40.39
55373;BME280;41249;47.838;16.490;2023-04-25T11:27:52;98405.72;;;11.33;38.85
55373;BME280;41249;47.838;16.490;2023-04-25T11:30:19;98399.84;;;11.74;39.26
55373;BME280;41249;47.838;16.490;2023-04-25T11:32:46;98413.44;;;12.08;39.28
55373;BME280;41249;47.838;16.490;2023-04-25T11:35:13;98410.91;;;11.97;38.41
55373;BME280;41249;47.838;16.490;2023-04-25T11:37:40;98417.06;;;12.24;38.30
55373;BME280;41249;47.838;16.490;2023-04-25T11:40:07;98414.81;;;12.35;37.49
55373;BME280;41249;47.838;16.490;2023-04-25T11:42:44;98425.13;;;11.60;37.59
55373;BME280;41249;47.838;16.490;2023-04-25T11:45:11;98424.69;;;11.38;38.51
55373;BME280;41249;47.838;16.490;2023-04-25T11:47:38;98432.06;;;11.71;37.12
55373;BME280;41249;47.838;16.490;2023-04-25T11:50:06;98420.84;;;11.55;37.89
55373;BME280;41249;47.838;16.490;2023-04-25T11:52:40;98425.38;;;12.44;36.34
55373;BME280;41249;47.838;16.490;2023-04-25T11:55:10;98441.19;;;11.92;35.86
55373;BME280;41249;47.838;16.490;2023-04-25T11:57:39;98436.41;;;11.72;36.63
55373;BME280;41249;47.838;16.490;2023-04-25T12:00:09;98426.59;;;12.43;36.40
55373;BME280;41249;47.838;16.490;2023-04-25T12:02:41;98432.09;;;12.82;37.64
55373;BME280;41249;47.838;16.490;2023-04-25T12:05:09;98424.34;;;13.22;35.86
55373;BME280;41249;47.838;16.490;2023-04-25T12:07:56;98428.94;;;13.61;36.15
55373;BME280;41249;47.838;16.490;2023-04-25T12:10:23;98421.28;;;13.00;34.74
55373;BME280;41249;47.838;16.490;2023-04-25T12:12:50;98427.31;;;12.47;36.97
55373;BME280;41249;47.838;16.490;2023-04-25T12:15:18;98445.75;;;11.82;37.83
55373;BME280;41249;47.838;16.490;2023-04-25T12:17:47;98453.59;;;11.44;38.31
55373;BME280;41249;47.838;16.490;2023-04-25T12:20:15;98469.81;;;10.99;39.26
55373;BME280;41249;47.838;16.490;2023-04-25T12:22:43;98482.91;;;9.74;51.76
55373;BME280;41249;47.838;16.490;2023-04-25T12:28:14;98512.75;;;6.10;71.74
55373;BME280;41249;47.838;16.490;2023-04-25T12:30:57;98507.97;;;5.31;76.30
55373;BME280;41249;47.838;16.490;2023-04-25T12:33:25;98503.78;;;5.04;76.88
55373;BME280;41249;47.838;16.490;2023-04-25T12:35:52;98507.72;;;5.07;77.86
55373;BME280;41249;47.838;16.490;2023-04-25T12:38:25;98503.56;;;5.23;77.74
55373;BME280;41249;47.838;16.490;2023-04-25T12:40:52;98494.28;;;5.46;76.60
55373;BME280;41249;47.838;16.490;2023-04-25T12:43:18;98487.41;;;5.80;74.44
55373;BME280;41249;47.838;16.490;2023-04-25T12:45:48;98478.13;;;6.09;71.37
55373;BME280;41249;47.838;16.490;2023-04-25T12:48:16;98486.84;;;6.29;71.57
55373;BME280;41249;47.838;16.490;2023-04-25T12:50:43;98488.81;;;6.28;67.49
55373;BME280;41249;47.838;16.490;2023-04-25T12:53:10;98483.75;;;6.48;64.14
55373;BME280;41249;47.838;16.490;2023-04-25T12:55:37;98481.47;;;6.82;62.46
55373;BME280;41249;47.838;16.490;2023-04-25T12:58:04;98481.47;;;7.24;60.52
55373;BME280;41249;47.838;16.490;2023-04-25T13:00:30;98477.91;;;7.45;58.25
55373;BME280;41249;47.838;16.490;2023-04-25T13:02:58;98470.78;;;7.68;60.02
55373;BME280;41249;47.838;16.490;2023-04-25T13:05:25;98460.47;;;7.79;57.35